Time;durP1;ratioP1;P1;durP2;ratioP2;P2;SDS_P1;SDS_P2;PMS_P1;PMS_P2;Temp;Humidity;BMP_temperature;BMP_pressure;BME280_temperature;BME280_humidity;BME280_pressure;Samples;Min_cycle;Max_cycle;Signal;HPM_P1;HPM_P2
2023/10/17 00:01:44;;;;;;;5.70;4.20;;;;;1.30;94145.00;;;;7398455;19;20140;-81
2023/10/17 00:06:48;;;;;;;6.07;4.60;;;;;1.30;94135.00;;;;7399343;19;20153;-80
2023/10/17 00:09:24;;;;;;;7.40;4.93;;;;;1.20;94129.00;;;;7398298;19;20644;-80
2023/10/17 00:14:45;;;;;;;6.90;4.50;;;;;1.20;94111.00;;;;7399084;19;20147;-80
2023/10/17 00:17:20;;;;;;;9.90;5.13;;;;;1.20;94114.00;;;;7397972;19;20181;-80
2023/10/17 00:19:59;;;;;;;6.93;5.73;;;;;1.20;94107.00;;;;7397929;19;20152;-79
2023/10/17 00:22:35;;;;;;;8.13;5.23;;;;;1.20;94106.00;;;;7398366;19;20155;-81
2023/10/17 00:25:10;;;;;;;6.23;4.53;;;;;1.20;94097.00;;;;7399327;19;20200;-80
2023/10/17 00:27:38;;;;;;;8.80;5.10;;;;;1.20;94099.00;;;;7398901;19;20136;-80
2023/10/17 00:30:17;;;;;;;7.40;5.20;;;;;1.30;94099.00;;;;7396986;19;20200;-80
2023/10/17 00:32:51;;;;;;;8.07;6.07;;;;;1.20;94099.00;;;;7398573;19;20587;-80
2023/10/17 00:35:36;;;;;;;7.33;5.27;;;;;1.30;94087.00;;;;7398050;19;20143;-80
2023/10/17 00:38:07;;;;;;;8.63;6.13;;;;;1.40;94088.00;;;;7397656;19;20141;-78
2023/10/17 00:40:49;;;;;;;13.60;5.93;;;;;1.60;94087.00;;;;7398625;19;20129;-80
2023/10/17 00:43:17;;;;;;;10.93;6.57;;;;;1.60;94082.00;;;;7394717;19;20613;-79
2023/10/17 00:45:51;;;;;;;11.00;5.93;;;;;1.60;94083.00;;;;7388968;19;20133;-81
2023/10/17 00:48:26;;;;;;;8.73;6.53;;;;;1.70;94082.00;;;;7397441;19;20153;-81
2023/10/17 00:51:08;;;;;;;11.00;7.37;;;;;1.80;94080.00;;;;7398586;19;20142;-79
2023/10/17 00:53:45;;;;;;;10.63;7.17;;;;;2.00;94081.00;;;;7398048;19;20137;-80
2023/10/17 00:56:13;;;;;;;9.30;7.07;;;;;1.90;94081.00;;;;7397132;19;20144;-81
2023/10/17 00:58:45;;;;;;;9.30;6.97;;;;;1.90;94076.00;;;;7398039;19;20133;-82
2023/10/17 01:01:26;;;;;;;10.73;7.67;;;;;2.10;94073.00;;;;7399633;19;20145;-78
2023/10/17 01:04:01;;;;;;;10.87;7.10;;;;;2.00;94077.00;;;;7396502;19;20660;-77
2023/10/17 01:09:17;;;;;;;11.97;7.50;;;;;1.90;94076.00;;;;7397785;19;20174;-77
2023/10/17 01:11:46;;;;;;;15.40;8.37;;;;;1.80;94077.00;;;;7396526;19;20141;-75
2023/10/17 01:14:23;;;;;;;11.47;7.33;;;;;1.70;94064.00;;;;7398232;19;20643;-75
2023/10/17 01:16:54;;;;;;;12.00;7.33;;;;;1.70;94067.00;;;;7396585;19;20660;-75
2023/10/17 01:19:34;;;;;;;10.47;7.50;;;;;1.70;94064.00;;;;7396620;19;20168;-76
2023/10/17 01:22:14;;;;;;;11.63;7.40;;;;;1.60;94051.00;;;;7398417;19;20157;-76
2023/10/17 01:24:56;;;;;;;11.23;7.10;;;;;1.70;94040.00;;;;7396439;19;20156;-75
2023/10/17 01:27:31;;;;;;;13.00;8.10;;;;;1.70;94059.00;;;;7395191;19;20159;-78
2023/10/17 01:30:07;;;;;;;12.37;8.50;;;;;1.70;94054.00;;;;7396274;19;20154;-77
2023/10/17 01:32:35;;;;;;;14.30;8.90;;;;;1.70;94057.00;;;;7396604;19;20144;-76
2023/10/17 01:35:10;;;;;;;12.57;8.17;;;;;1.60;94054.00;;;;7395346;19;20487;-78
2023/10/17 01:37:40;;;;;;;11.23;7.67;;;;;1.60;94061.00;;;;7396438;19;20141;-78
2023/10/17 01:40:33;;;;;;;11.10;8.17;;;;;1.70;94047.00;;;;7396173;19;20620;-77
2023/10/17 01:43:01;;;;;;;11.23;8.40;;;;;1.70;94049.00;;;;7397046;19;20129;-76
2023/10/17 01:45:37;;;;;;;12.50;8.80;;;;;1.80;94052.00;;;;7396727;19;20142;-78
2023/10/17 01:48:05;;;;;;;13.00;8.13;;;;;1.80;94048.00;;;;7396973;19;20179;-78
2023/10/17 01:50:40;;;;;;;11.37;7.97;;;;;1.70;94045.00;;;;7395641;19;20125;-78
2023/10/17 01:53:12;;;;;;;11.67;8.67;;;;;1.70;94046.00;;;;7396345;19;20170;-79
2023/10/17 01:55:51;;;;;;;12.37;8.10;;;;;1.60;94035.00;;;;7397189;19;20618;-75
2023/10/17 01:58:29;;;;;;;15.50;7.50;;;;;1.60;94033.00;;;;7396771;19;20148;-77
2023/10/17 02:01:11;;;;;;;11.33;7.60;;;;;1.60;94037.00;;;;7395084;19;20148;-76
2023/10/17 02:03:46;;;;;;;12.97;8.97;;;;;1.60;94046.00;;;;7394747;19;20168;-76
2023/10/17 02:06:22;;;;;;;13.90;9.03;;;;;1.50;94046.00;;;;7396303;19;20133;-75
2023/10/17 02:08:58;;;;;;;11.10;8.00;;;;;1.30;94041.00;;;;7395022;19;20174;-76
2023/10/17 02:11:43;;;;;;;11.77;8.40;;;;;1.30;94036.00;;;;7395168;19;20156;-80
2023/10/17 02:14:11;;;;;;;10.93;7.70;;;;;1.30;94037.00;;;;7396394;19;20155;-79
2023/10/17 02:16:48;;;;;;;14.83;7.80;;;;;1.20;94050.00;;;;7395543;19;20516;-77
2023/10/17 02:19:25;;;;;;;12.70;8.73;;;;;1.30;94049.00;;;;7396564;19;20133;-81
2023/10/17 02:22:00;;;;;;;11.00;8.40;;;;;1.30;94053.00;;;;7394423;19;20588;-79
2023/10/17 02:24:41;;;;;;;14.63;8.70;;;;;1.30;94053.00;;;;7395701;19;20149;-81
2023/10/17 02:27:21;;;;;;;12.37;8.93;;;;;1.40;94056.00;;;;7400459;19;20135;-80
2023/10/17 02:29:49;;;;;;;11.47;8.23;;;;;1.40;94052.00;;;;7402850;19;20556;-79
2023/10/17 02:32:25;;;;;;;13.37;9.00;;;;;1.50;94056.00;;;;7403072;19;20528;-79
2023/10/17 02:34:54;;;;;;;15.37;8.87;;;;;1.50;94054.00;;;;7403538;19;20491;-81
2023/10/17 02:37:32;;;;;;;14.47;8.73;;;;;1.60;94045.00;;;;7401012;19;20148;-80
2023/10/17 02:40:09;;;;;;;10.47;8.00;;;;;1.60;94054.00;;;;7403031;19;20604;-79
2023/10/17 02:42:48;;;;;;;14.60;8.87;;;;;1.50;94053.00;;;;7399342;19;20159;-77
2023/10/17 02:45:26;;;;;;;14.03;8.70;;;;;1.50;94062.00;;;;7403373;19;20153;-80
2023/10/17 02:51:24;;;;;;;11.83;8.50;;;;;1.50;94057.00;;;;7397284;19;20223;-82
2023/10/17 02:53:53;;;;;;;11.57;8.40;;;;;1.40;94052.00;;;;7402268;19;20168;-77
2023/10/17 02:56:28;;;;;;;14.63;8.70;;;;;1.40;94047.00;;;;7401687;19;20467;-78
2023/10/17 02:59:07;;;;;;;13.93;8.50;;;;;1.40;94042.00;;;;7399173;19;20589;-77
2023/10/17 03:01:47;;;;;;;11.77;8.07;;;;;1.20;94042.00;;;;7402351;19;20137;-81
2023/10/17 03:04:17;;;;;;;14.40;8.10;;;;;1.30;94047.00;;;;7403459;19;20160;-81
2023/10/17 03:06:54;;;;;;;14.43;8.60;;;;;1.40;94052.00;;;;7401139;19;20165;-81
2023/10/17 03:14:40;;;;;;;12.43;9.07;;;;;1.50;94048.00;;;;7401233;19;20145;-79
2023/10/17 03:17:15;;;;;;;14.53;8.80;;;;;1.40;94044.00;;;;7401150;19;20156;-80
2023/10/17 03:19:44;;;;;;;12.73;9.00;;;;;1.40;94045.00;;;;7402603;19;20121;-80
2023/10/17 03:22:24;;;;;;;11.97;8.63;;;;;1.40;94048.00;;;;7399846;19;20277;-77
2023/10/17 03:25:18;;;;;;;15.70;9.00;;;;;1.50;94053.00;;;;7399525;19;20144;-76
2023/10/17 03:27:50;;;;;;;16.07;9.17;;;;;1.60;94058.00;;;;7400512;19;20147;-76
2023/10/17 03:30:25;;;;;;;11.93;8.97;;;;;1.60;94061.00;;;;7399873;19;20153;-76
2023/10/17 03:35:35;;;;;;;13.27;9.23;;;;;1.60;94055.00;;;;7399336;19;20782;-76
2023/10/17 03:38:14;;;;;;;15.07;9.47;;;;;1.60;94053.00;;;;7399065;19;20216;-77
2023/10/17 03:40:53;;;;;;;14.63;9.33;;;;;1.50;94048.00;;;;7402395;19;20133;-78
2023/10/17 03:43:22;;;;;;;16.23;9.60;;;;;1.60;94058.00;;;;7397815;19;20601;-77
2023/10/17 03:46:03;;;;;;;15.67;9.13;;;;;1.60;94054.00;;;;7399998;19;20615;-77
2023/10/17 03:48:49;;;;;;;15.10;8.70;;;;;1.60;94052.00;;;;7402097;19;20513;-76
2023/10/17 03:51:30;;;;;;;12.37;8.50;;;;;1.60;94040.00;;;;7399951;19;20596;-76
2023/10/17 03:54:06;;;;;;;14.10;9.13;;;;;1.80;94047.00;;;;7400141;19;20148;-76
2023/10/17 03:56:45;;;;;;;15.20;9.23;;;;;1.70;94045.00;;;;7399715;19;20133;-77
2023/10/17 03:59:30;;;;;;;15.43;9.47;;;;;1.80;94050.00;;;;7401895;19;20125;-79
2023/10/17 04:01:59;;;;;;;15.77;10.00;;;;;1.80;94055.00;;;;7399467;19;20597;-76
2023/10/17 04:04:35;;;;;;;13.87;9.33;;;;;1.90;94053.00;;;;7401577;19;20611;-76
2023/10/17 04:07:08;;;;;;;17.47;10.97;;;;;1.90;94052.00;;;;7400501;19;20129;-79
2023/10/17 04:10:18;;;;;;;17.57;10.80;;;;;1.90;94042.00;;;;7399002;19;20153;-76
2023/10/17 04:12:49;;;;;;;14.97;10.40;;;;;1.80;94041.00;;;;7398805;19;20165;-77
2023/10/17 04:15:25;;;;;;;16.63;10.73;;;;;2.00;94031.00;;;;7398663;19;20173;-76
2023/10/17 04:18:00;;;;;;;14.77;10.53;;;;;2.00;94033.00;;;;7398735;19;20133;-78
2023/10/17 04:20:36;;;;;;;17.97;11.27;;;;;1.90;94031.00;;;;7399081;19;20148;-77
2023/10/17 04:23:26;;;;;;;17.50;11.10;;;;;2.00;94032.00;;;;7396086;19;20181;-78
2023/10/17 04:26:01;;;;;;;17.67;11.07;;;;;1.90;94026.00;;;;7397389;19;20157;-78
2023/10/17 04:28:43;;;;;;;19.53;11.80;;;;;1.90;94027.00;;;;7400836;19;20496;-79
2023/10/17 04:31:25;;;;;;;18.97;12.20;;;;;2.00;94022.00;;;;7401179;19;20157;-76
2023/10/17 04:34:06;;;;;;;16.57;10.53;;;;;2.00;94029.00;;;;7399326;19;20423;-79
2023/10/17 04:36:41;;;;;;;17.77;11.50;;;;;1.90;94026.00;;;;7397522;19;20608;-78
2023/10/17 04:39:19;;;;;;;16.47;11.07;;;;;2.00;94016.00;;;;7400978;19;20129;-79
2023/10/17 04:45:05;;;;;;;18.70;11.87;;;;;2.00;94017.00;;;;7396089;19;20140;-77
2023/10/17 04:49:56;;;;;;;20.63;12.53;;;;;2.20;94014.00;;;;7398103;19;20630;-79
2023/10/17 04:52:40;;;;;;;23.17;13.70;;;;;2.30;94007.00;;;;7398449;19;20212;-77
2023/10/17 04:55:18;;;;;;;18.33;12.93;;;;;2.30;93998.00;;;;7397090;19;20676;-79
2023/10/17 04:57:56;;;;;;;19.63;12.80;;;;;2.30;93992.00;;;;7400540;19;20178;-75
2023/10/17 05:03:33;;;;;;;19.20;13.30;;;;;2.40;93989.00;;;;7395891;19;20176;-77
2023/10/17 05:09:00;;;;;;;20.83;12.77;;;;;2.40;93986.00;;;;7398189;19;20494;-77
2023/10/17 06:18:26;;;;;;;22.30;15.10;;;;;2.80;94004.00;;;;7392414;19;20486;-79
2023/10/17 06:21:06;;;;;;;22.90;13.83;;;;;2.90;94003.00;;;;7390714;19;20925;-78
2023/10/17 06:34:44;;;;;;;21.63;14.23;;;;;3.20;94026.00;;;;7393976;19;20177;-78
2023/10/17 06:37:30;;;;;;;20.07;13.17;;;;;3.30;94024.00;;;;7392469;19;20152;-79
2023/10/17 06:40:15;;;;;;;18.70;13.47;;;;;3.30;94031.00;;;;7392326;19;20144;-79
2023/10/17 06:42:58;;;;;;;18.33;12.90;;;;;3.30;94035.00;;;;7388397;19;20148;-79
2023/10/17 06:45:36;;;;;;;18.20;12.70;;;;;3.40;94029.00;;;;7391378;19;20145;-78
2023/10/17 06:48:08;;;;;;;22.40;13.13;;;;;3.50;94032.00;;;;7391524;19;20144;-79
2023/10/17 06:54:07;;;;;;;18.80;12.10;;;;;3.70;94033.00;;;;7389756;19;20187;-79
2023/10/17 06:56:43;;;;;;;15.97;11.57;;;;;3.80;94036.00;;;;7389881;19;20155;-79
2023/10/17 06:59:35;;;;;;;16.47;11.00;;;;;3.90;94027.00;;;;7390430;19;20517;-79
2023/10/17 07:02:11;;;;;;;18.07;12.17;;;;;4.00;94024.00;;;;7391523;19;20211;-81
2023/10/17 07:04:49;;;;;;;17.13;12.00;;;;;4.00;94031.00;;;;7391927;19;20147;-80
2023/10/17 07:07:31;;;;;;;19.10;12.13;;;;;4.10;94025.00;;;;7393145;19;20144;-80
2023/10/17 07:13:31;;;;;;;19.43;12.20;;;;;4.30;94023.00;;;;7391130;19;20117;-82
2023/10/17 07:16:13;;;;;;;19.10;12.13;;;;;4.30;94015.00;;;;7392456;19;20152;-78
2023/10/17 07:18:51;;;;;;;19.33;11.83;;;;;4.50;94020.00;;;;7391960;19;20161;-80
2023/10/17 07:21:27;;;;;;;15.43;10.87;;;;;4.50;94014.00;;;;7392267;19;20709;-80
2023/10/17 07:24:07;;;;;;;15.97;10.50;;;;;4.60;94020.00;;;;7392124;19;20176;-80
2023/10/17 07:26:41;;;;;;;18.90;12.20;;;;;4.70;94018.00;;;;7392087;19;20432;-79
2023/10/17 07:29:12;;;;;;;15.97;11.10;;;;;4.90;94019.00;;;;7391647;19;20547;-80
2023/10/17 07:31:52;;;;;;;16.23;11.10;;;;;5.10;94011.00;;;;7392556;19;20509;-81
2023/10/17 07:34:24;;;;;;;16.83;11.97;;;;;5.10;94013.00;;;;7392967;19;20149;-79
2023/10/17 07:37:22;;;;;;;15.77;11.20;;;;;5.20;94008.00;;;;7392360;19;20182;-81
2023/10/17 07:42:45;;;;;;;15.70;11.07;;;5.00;99.90;5.70;94008.00;;;;7388349;19;20627;-79
2023/10/17 07:45:23;;;;;;;13.73;10.67;;;5.00;99.90;5.90;94016.00;;;;7391516;19;20166;-80
2023/10/17 07:47:51;;;;;;;14.93;11.30;;;5.20;99.90;6.00;93961.00;;;;7389807;19;20208;-79
2023/10/17 07:50:27;;;;;;;14.20;11.73;;;5.30;99.90;6.00;93949.00;;;;7389452;19;20618;-81
2023/10/17 07:53:05;;;;;;;14.40;11.37;;;5.30;99.90;6.10;94007.00;;;;7393666;19;20167;-79
2023/10/17 07:55:48;;;;;;;17.10;11.17;;;5.40;99.90;6.30;93975.00;;;;7393924;19;20148;-79
2023/10/17 07:58:35;;;;;;;16.67;11.40;;;5.60;99.90;6.50;93954.00;;;;7392038;19;20152;-79
2023/10/17 08:01:14;;;;;;;15.70;10.40;;;5.70;99.90;6.60;93970.00;;;;7392478;19;20152;-80
2023/10/17 08:03:57;;;;;;;19.20;11.27;;;5.80;99.90;6.60;93983.00;;;;7391174;19;20163;-79
2023/10/17 08:06:31;;;;;;;14.57;10.67;;;6.00;99.90;6.60;94005.00;;;;7391587;19;20174;-79
2023/10/17 08:09:17;;;;;;;15.07;10.40;;;6.00;99.90;6.70;93975.00;;;;7390944;19;20595;-81
2023/10/17 08:11:59;;;;;;;12.90;10.00;;;6.10;77.70;6.70;93959.00;;;;7389600;19;20157;-80
2023/10/17 08:17:08;;;;;;;14.43;10.13;;;6.40;44.70;7.30;93972.00;;;;6901862;19;10140975;-79
2023/10/17 08:22:55;;;;;;;13.77;9.73;;;6.80;13.90;7.40;93958.00;;;;7428762;19;20452;-81
2023/10/17 08:25:32;;;;;;;12.77;9.53;;;6.90;1.00;7.40;93957.00;;;;7423418;19;20128;-82
2023/10/17 08:28:03;;;;;;;14.57;9.47;;;6.90;3.30;7.40;93944.00;;;;7420920;19;20154;-83
2023/10/17 08:30:38;;;;;;;12.70;9.37;;;7.00;11.10;7.60;93971.00;;;;7420600;19;20650;-81
2023/10/17 08:33:13;;;;;;;14.83;9.63;;;7.00;1.00;7.80;93965.00;;;;7422351;19;20172;-80
2023/10/17 08:35:56;;;;;;;13.07;8.80;;;7.00;1.00;7.70;93992.00;;;;7420243;19;20627;-80
2023/10/17 08:38:33;;;;;;;13.47;8.67;;;7.00;1.00;7.70;93951.00;;;;7418875;19;20682;-80
2023/10/17 08:41:08;;;;;;;13.13;8.97;;;7.00;1.00;7.60;93975.00;;;;7420356;19;20169;-78
2023/10/17 08:43:42;;;;;;;13.43;9.37;;;7.00;1.00;7.80;93982.00;;;;7418728;19;20627;-80
2023/10/17 08:46:20;;;;;;;11.33;7.83;;;7.10;1.00;8.10;93893.00;;;;7419752;19;20595;-78
2023/10/17 08:48:56;;;;;;;12.50;8.00;;;;;8.30;93990.00;;;;7418031;19;20165;-80
2023/10/17 08:51:25;;;;;;;12.50;7.63;;;;;8.70;93989.00;;;;7418577;19;20137;-80
2023/10/17 08:54:00;;;;;;;11.30;7.77;;;;;9.00;93990.00;;;;7419559;19;20147;-81
2023/10/17 08:56:36;;;;;;;12.00;8.70;;;;;9.30;93987.00;;;;7416971;19;20607;-81
2023/10/17 08:59:11;;;;;;;10.63;8.13;;;;;9.60;93989.00;;;;7417703;19;20148;-76
2023/10/17 09:02:14;;;;;;;12.13;7.33;;;;;9.50;93984.00;;;;7419231;19;20156;-79
2023/10/17 09:04:49;;;;;;;8.67;6.97;;;;;9.30;93984.00;;;;7420352;19;20157;-81
2023/10/17 09:07:42;;;;;;;9.33;6.83;;;;;9.50;93992.00;;;;7418571;19;20639;-78
2023/10/17 09:10:21;;;;;;;9.97;8.10;;;;;9.70;93987.00;;;;7418259;19;20576;-78
2023/10/17 09:16:17;;;;;;;8.15;6.85;;;;;9.60;93994.00;;;;7416522;19;20172;-80
2023/10/17 09:18:54;;;;;;;9.70;7.07;;;;;9.60;93993.00;;;;7416655;19;20583;-79
2023/10/17 09:21:28;;;;;;;12.18;7.60;;;;;9.60;93992.00;;;;7418621;19;20141;-78
2023/10/17 09:24:03;;;;;;;9.60;7.20;;;;;9.50;93987.00;;;;7420150;19;20231;-79
2023/10/17 09:26:31;;;;;;;12.10;8.43;;;;;9.30;93990.00;;;;7411408;19;20620;-80
2023/10/17 09:29:05;;;;;;;12.73;7.10;;;;;9.30;93977.00;;;;7389301;19;20163;-79
2023/10/17 09:31:43;;;;;;;9.45;7.70;;;;;9.80;93983.00;;;;7389730;19;20472;-77
2023/10/17 09:34:20;;;;;;;10.87;7.57;;;;;9.90;93982.00;;;;7389460;19;20137;-76
2023/10/17 09:36:48;;;;;;;10.32;7.43;;;;;10.00;93977.00;;;;7388607;19;20156;-79
2023/10/17 09:39:27;;;;;;;13.18;7.28;;;;;10.00;93983.00;;;;7389453;19;20156;-78
2023/10/17 09:42:05;;;;;;;9.15;6.97;;;;;10.10;93985.00;;;;7387945;19;20158;-81
2023/10/17 09:44:40;;;;;;;9.98;7.55;;;;;10.20;93991.00;;;;7390797;19;20139;-76
2023/10/17 09:47:09;;;;;;;11.77;7.35;;;;;10.50;93992.00;;;;7388248;19;20154;-79
2023/10/17 09:49:48;;;;;;;11.35;7.00;;;;;10.80;93994.00;;;;7391221;19;20132;-80
2023/10/17 09:52:20;;;;;;;7.63;6.28;;;;;11.00;93996.00;;;;7389103;19;20146;-79
2023/10/17 09:54:58;;;;;;;8.23;6.43;;;;;11.30;93990.00;;;;7386034;19;20148;-78
2023/10/17 09:57:27;;;;;;;8.10;6.43;;;;;12.00;93991.00;;;;7387072;19;20212;-77
2023/10/17 10:00:05;;;;;;;9.10;6.68;;;;;11.90;93994.00;;;;7387717;19;20154;-77
2023/10/17 10:02:43;;;;;;;8.43;6.28;;;;;11.70;93995.00;;;;7389435;19;20153;-77
2023/10/17 10:05:20;;;;;;;7.93;6.40;;;;;12.10;94003.00;;;;7387069;19;20617;-77
2023/10/17 10:07:59;;;;;;;9.43;6.57;;;;;12.60;93995.00;;;;7387625;19;20161;-79
2023/10/17 10:10:46;;;;;;;9.65;5.97;;;;;12.70;93997.00;;;;7388295;19;20670;-80
2023/10/17 10:13:21;;;;;;;8.35;6.45;;;;;13.20;93995.00;;;;7388299;19;20149;-77
2023/10/17 10:15:59;;;;;;;8.93;6.90;;;;;12.70;93990.00;;;;7386362;19;20168;-78
2023/10/17 10:18:42;;;;;;;7.57;5.85;;;;;13.10;93989.00;;;;7385933;19;20145;-77
2023/10/17 10:21:13;;;;;;;8.43;5.38;;;;;14.00;93985.00;;;;7385533;19;20635;-78
2023/10/17 10:23:50;;;;;;;10.52;6.32;;;;;14.10;93998.00;;;;7387643;19;20141;-79
2023/10/17 10:26:19;;;;;;;8.18;6.00;;;;;14.60;93993.00;;;;7385907;19;20596;-81
2023/10/17 10:29:23;;;;;;;6.50;5.13;;;;;14.40;93987.00;;;;7386088;19;20145;-80
2023/10/17 10:32:05;;;;;;;7.13;5.88;;;;;13.90;94000.00;;;;7387500;19;20150;-79
2023/10/17 10:34:40;;;;;;;7.60;5.75;;;;;14.30;93994.00;;;;7386719;19;20137;-78
2023/10/17 10:37:16;;;;;;;7.28;5.55;;;;;14.70;94002.00;;;;7388474;19;20166;-79
2023/10/17 10:40:40;;;;;;;7.10;5.25;;;;;15.30;94006.00;;;;7383258;19;20136;-80
2023/10/17 10:43:11;;;;;;;7.93;5.53;;;;;15.30;94008.00;;;;7384031;19;20238;-79
2023/10/17 10:45:50;;;;;;;6.97;5.65;;;;;14.80;93994.00;;;;7386074;19;20152;-79
2023/10/17 10:48:26;;;;;;;7.75;6.20;;;;;15.20;93989.00;;;;7384561;19;20174;-81
2023/10/17 10:51:02;;;;;;;10.57;5.88;;;;;15.10;93994.00;;;;7387332;19;20160;-77
2023/10/17 10:53:39;;;;;;;7.38;5.60;;;;;15.50;93985.00;;;;7386227;19;20129;-81
2023/10/17 10:56:15;;;;;;;8.13;5.50;;;;;15.30;93983.00;;;;7384169;19;20168;-78
2023/10/17 10:58:53;;;;;;;8.50;5.78;;;;;15.90;93993.00;;;;7386550;19;20495;-78
2023/10/17 11:01:33;;;;;;;6.30;5.70;;;;;15.70;93999.00;;;;7385394;19;20491;-76
2023/10/17 11:04:10;;;;;;;6.68;5.60;;;;;15.40;93999.00;;;;7387624;19;20873;-81
2023/10/17 11:06:40;;;;;;;7.00;6.18;;;;;15.10;94009.00;;;;7386884;19;20182;-79
2023/10/17 11:09:24;;;;;;;6.28;5.53;;;;;14.70;94004.00;;;;7386549;19;20144;-80
2023/10/17 11:11:53;;;;;;;7.55;6.10;;;;;14.20;94008.00;;;;7387835;19;20593;-81
2023/10/17 11:14:31;;;;;;;7.00;5.90;;;;;14.70;94002.00;;;;7386458;19;20136;-79
2023/10/17 11:17:06;;;;;;;8.30;6.10;;;;;15.20;93993.00;;;;7385136;19;20604;-79
2023/10/17 11:19:41;;;;;;;6.90;5.53;;;;;15.20;93997.00;;;;7386959;19;20652;-80
2023/10/17 11:22:17;;;;;;;7.63;6.00;;;;;15.30;93994.00;;;;7385376;19;20150;-80
2023/10/17 11:24:52;;;;;;;7.55;5.85;;;;;15.80;93989.00;;;;7384973;19;20524;-76
2023/10/17 11:27:32;;;;;;;6.13;5.45;;;;;16.10;93982.00;;;;7384709;19;20156;-78
2023/10/17 11:30:08;;;;;;;9.48;5.97;;;;;16.10;93982.00;;;;7386058;19;20169;-80
2023/10/17 11:32:40;;;;;;;10.40;5.50;;;;;15.90;93988.00;;;;7385940;19;20166;-79
2023/10/17 11:35:29;;;;;;;7.90;6.00;;;;;14.70;93987.00;;;;7382339;19;20152;-78
2023/10/17 11:37:58;;;;;;;6.22;5.40;;;;;14.70;93981.00;;;;7386974;19;20165;-76
2023/10/17 11:40:45;;;;;;;6.43;5.13;;;;;15.20;93974.00;;;;7384524;19;20175;-77
2023/10/17 11:43:17;;;;;;;10.60;5.40;;;;;14.90;93991.00;;;;7383454;19;20504;-78
2023/10/17 11:45:52;;;;;;;7.10;5.05;;;;;14.20;93993.00;;;;7386417;19;20144;-76
2023/10/17 11:48:32;;;;;;;6.53;5.22;;;;;13.60;94001.00;;;;7384492;19;20156;-78
2023/10/17 11:51:17;;;;;;;7.90;5.50;;;;;13.30;93995.00;;;;7383433;19;20140;-78
2023/10/17 11:54:07;;;;;;;6.40;4.90;;;;;13.10;93986.00;;;;7384846;19;20188;-80
2023/10/17 11:57:13;;;;;;;7.10;4.93;;;;;13.40;93998.00;;;;7385271;19;20148;-79
2023/10/17 12:00:19;;;;;;;6.53;4.88;;;;;13.50;93990.00;;;;7385575;19;20145;-77
2023/10/17 12:02:53;;;;;;;7.80;4.68;;;;;14.20;93986.00;;;;7385214;19;20152;-77
2023/10/17 12:05:27;;;;;;;7.00;5.40;;;;;13.60;93987.00;;;;7383876;19;20152;-81
2023/10/17 12:08:02;;;;;;;7.80;5.60;;;;;13.50;93989.00;;;;7383723;19;20217;-77
2023/10/17 12:10:42;;;;;;;6.38;5.40;;;;;13.80;93981.00;;;;7383486;19;20161;-76
2023/10/17 12:13:20;;;;;;;10.98;6.18;;;;;14.40;93979.00;;;;7385600;19;20128;-76
2023/10/17 12:15:57;;;;;;;8.95;6.05;;;;;14.50;93981.00;;;;7384825;19;20219;-78
2023/10/17 12:18:31;;;;;;;11.15;6.30;;;;;14.20;93935.00;;;;7384782;19;20184;-79
2023/10/17 12:21:14;;;;;;;8.70;6.80;;;;;14.60;93974.00;;;;7384425;19;20136;-77
2023/10/17 12:23:48;;;;;;;9.05;7.15;;;;;14.70;93974.00;;;;7384252;19;20144;-78
2023/10/17 12:26:26;;;;;;;7.53;6.00;;;;;14.70;93970.00;;;;7385402;19;20633;-79
2023/10/17 12:29:01;;;;;;;7.20;5.70;;;;;14.70;93968.00;;;;7385017;19;20133;-78
2023/10/17 12:31:36;;;;;;;10.50;6.43;;;;;14.50;93964.00;;;;7383203;19;20128;-77
2023/10/17 12:34:11;;;;;;;8.35;6.35;;;;;15.10;93965.00;;;;7385982;19;20588;-76
2023/10/17 12:36:46;;;;;;;9.18;6.32;;;;;14.70;93970.00;;;;7383787;19;20132;-77
2023/10/17 12:39:17;;;;;;;6.78;5.68;;;;;15.10;93973.00;;;;7382368;19;20157;-78
2023/10/17 12:41:46;;;;;;;10.00;6.40;;;;;14.80;93965.00;;;;7380795;19;20153;-77
2023/10/17 12:44:20;;;;;;;12.63;6.63;;;;;14.10;93965.00;;;;7382586;19;20155;-79
2023/10/17 12:46:55;;;;;;;7.95;6.22;;;;;14.20;93969.00;;;;7385776;19;20939;-77
2023/10/17 12:49:30;;;;;;;8.77;6.60;;;;;13.90;93959.00;;;;7383778;19;20152;-79
2023/10/17 12:52:05;;;;;;;12.20;7.07;;;;;13.90;93957.00;;;;7384508;19;20148;-79
2023/10/17 12:54:33;;;;;;;8.40;6.82;;;;;14.20;93952.00;;;;7382792;19;20145;-79
2023/10/17 12:57:08;;;;;;;7.88;6.53;;;;;14.10;93960.00;;;;7382640;19;20165;-77
2023/10/17 12:59:36;;;;;;;11.40;6.72;;;;;13.80;93952.00;;;;7383483;19;20224;-76
2023/10/17 13:02:11;;;;;;;8.85;6.20;;;;;13.50;93949.00;;;;7385612;19;20164;-75
2023/10/17 13:04:46;;;;;;;8.70;6.78;;;;;14.20;93943.00;;;;7389261;19;20159;-75
2023/10/17 13:07:15;;;;;;;8.32;6.20;;;;;15.40;93923.00;;;;7390426;19;20156;-79
2023/10/17 13:09:50;;;;;;;10.57;6.32;;;;;17.30;93912.00;;;;7389710;19;20499;-76
2023/10/17 13:12:19;;;;;;;7.07;6.03;;;;;17.70;93926.00;;;;7390011;19;20137;-79
2023/10/17 13:14:56;;;;;;;7.68;6.05;;;;;16.80;93907.00;;;;7394005;19;20133;-82
2023/10/17 13:17:30;;;;;;;9.35;5.97;;;;;17.30;93925.00;;;;7391337;19;20176;-76
2023/10/17 13:20:14;;;;;;;6.72;5.72;;;;;18.90;93920.00;;;;7390037;19;20157;-78
2023/10/17 13:23:08;;;;;;;7.45;5.75;;;;;19.20;93912.00;;;;7389631;19;20163;-77
2023/10/17 13:25:49;;;;;;;7.35;5.63;;;;;18.50;93861.00;;;;7389994;19;20189;-77
2023/10/17 13:28:25;;;;;;;7.47;5.78;;;;;17.90;93922.00;;;;7391224;19;20136;-80
2023/10/17 13:31:11;;;;;;;7.10;5.25;;;;;17.70;93914.00;;;;7390043;19;20148;-76
2023/10/17 13:33:46;;;;;;;6.68;5.93;;;;;18.30;93906.00;;;;7391532;19;20125;-77
2023/10/17 13:36:20;;;;;;;8.00;5.23;;;;;18.00;93912.00;;;;7389110;19;20145;-76
2023/10/17 13:38:55;;;;;;;7.45;6.00;;;;;18.10;93911.00;;;;7391465;19;20576;-79
2023/10/17 13:41:30;;;;;;;7.75;5.20;;;;;18.60;93913.00;;;;7389807;19;20604;-77
2023/10/17 13:43:58;;;;;;;6.82;5.15;;;;;18.90;93913.00;;;;7386936;19;20161;-79
2023/10/17 13:46:33;;;;;;;7.10;5.30;;;;;18.40;93916.00;;;;7384474;19;20163;-78
2023/10/17 13:49:02;;;;;;;6.85;5.38;;;;;18.40;93915.00;;;;7388089;19;20148;-77
2023/10/17 13:51:34;;;;;;;6.72;5.35;;;;;18.40;93909.00;;;;7388438;19;20129;-75
2023/10/17 13:54:09;;;;;;;6.95;5.10;;;;;17.80;93919.00;;;;7387553;19;20153;-76
2023/10/17 13:56:44;;;;;;;6.35;5.28;;;;;16.50;93923.00;;;;7388343;19;20144;-78
2023/10/17 13:59:13;;;;;;;7.65;5.47;;;;;15.40;93921.00;;;;7388295;19;20920;-79
2023/10/17 14:01:52;;;;;;;6.80;5.45;;;;;15.40;93929.00;;;;7387290;19;20145;-79
2023/10/17 14:04:22;;;;;;;8.50;6.53;;;;;15.00;93938.00;;;;7388443;19;20628;-82
2023/10/17 14:06:57;;;;;;;8.30;5.93;;;;;14.60;93921.00;;;;7390014;19;20144;-82
2023/10/17 14:09:32;;;;;;;9.82;5.72;;;;;14.20;93935.00;;;;7389724;19;20628;-79
2023/10/17 14:12:09;;;;;;;7.90;4.82;;;;;14.40;93935.00;;;;7387023;19;20147;-78
2023/10/17 14:14:38;;;;;;;7.90;5.78;;;;;14.30;93939.00;;;;7388814;19;20613;-78
2023/10/17 14:17:20;;;;;;;7.63;5.53;;;;;14.40;93931.00;;;;7388350;19;20184;-79
2023/10/17 14:20:05;;;;;;;6.85;5.05;;;;;14.40;93930.00;;;;7387896;19;20619;-80
2023/10/17 14:22:44;;;;;;;8.15;4.82;;;;;14.40;93928.00;;;;7387855;19;21773;-79
2023/10/17 14:26:00;;;;;;;7.47;4.80;;;;;14.30;93937.00;;;;7389093;19;20155;-76
2023/10/17 14:28:19;;;;;;;6.45;5.30;;;;;13.80;93934.00;;;;7388442;19;20182;-81
2023/10/17 14:31:08;;;;;;;6.85;5.00;;;;;13.60;93930.00;;;;7388607;19;20519;-81
2023/10/17 14:33:43;;;;;;;7.25;4.93;;;;;13.50;93924.00;;;;7389630;19;20140;-80
2023/10/17 14:36:16;;;;;;;9.18;5.75;;;;;12.80;93925.00;;;;7388055;19;21065;-79
2023/10/17 14:38:52;;;;;;;7.63;4.68;;;;;12.60;93913.00;;;;7388440;19;20157;-78
2023/10/17 14:41:30;;;;;;;8.73;5.90;;;;;12.50;93916.00;;;;7389295;19;20622;-80
2023/10/17 14:44:05;;;;;;;7.15;5.40;;;;;12.40;93922.00;;;;7388980;19;20144;-78
2023/10/17 14:46:33;;;;;;;9.77;6.07;;;;;12.10;93926.00;;;;7388141;19;20125;-78
2023/10/17 14:49:06;;;;;;;12.35;6.82;;;;;12.20;93935.00;;;;7390850;19;20189;-80
2023/10/17 14:51:41;;;;;;;8.80;5.05;;;;;12.10;93923.00;;;;7389564;19;20631;-79
2023/10/17 14:54:16;;;;;;;10.73;5.10;;;;;12.10;93923.00;;;;7387922;19;20144;-80
2023/10/17 14:56:44;;;;;;;8.07;4.55;;;;;12.30;93916.00;;;;7389527;19;20132;-80
2023/10/17 14:59:20;;;;;;;8.88;5.07;;;;;12.40;93914.00;;;;7388744;19;20263;-81
2023/10/17 15:01:47;;;;;;;8.88;5.68;;;;;12.40;93916.00;;;;7384900;19;20121;-80
2023/10/17 15:04:23;;;;;;;7.35;5.03;;;;;12.30;93914.00;;;;7385160;19;21884;-78